KMDQ

Huntsville Executive Tom Sharp Jr Field Airport

Huntsville, Alabama, USA
METAR KMDQ 171610Z AUTO 18012KT 10SM BKN022 BKN027 28/23 A3012 RMK A02 T02830227
Observed Flight Rules
Aug-17 @ 16:10 UTC (40 minutes ago) Marginal Visual Flight Rules
Wind Visibility Clouds
180° at 12 knots 10 miles
  • Broken at 2,200' AGL
  • Broken at 2,700' AGL
Temperatures Readings
Current 28°C / 82°F
Dewpoint 23°C / 73°F
Humidity 74%
Altimeter 30.12" Hg
Pressure 1020 hPa
Elevation 230
METAR KMDQ 171610Z AUTO 18012KT 10SM BKN022 BKN027 28/23 A3012 RMK A02 T02830227
Observed Flight Rules
Aug-17 @ 16:10 UTC
(40 minutes ago)
MVFR
Wind Visibility
180° at 12 knots 10 miles
Clouds
  • Broken at 2,200' AGL
  • Broken at 2,700' AGL
Temperature Dewpoint
28°C / 82°F 23°C / 73°F
Humidity Altimeter Pressure
74% 30.12" Hg 1020 hPa